Time;durP1;ratioP1;P1;durP2;ratioP2;P2;SDS_P1;SDS_P2;PMS_P1;PMS_P2;Temp;Humidity;BMP_temperature;BMP_pressure;BME280_temperature;BME280_humidity;BME280_pressure;Samples;Min_cycle;Max_cycle;Signal;HPM_P1;HPM_P2
2023/02/04 00:02:10;;;;;;;1.87;0.80;;;22.80;30.80;;;;;;5047837;28;20202;-72
2023/02/04 00:04:37;;;;;;;0.80;0.70;;;22.50;30.60;;;;;;5049770;28;20207;-73
2023/02/04 00:07:05;;;;;;;3.33;0.70;;;22.30;30.80;;;;;;5050561;28;20179;-67
2023/02/04 00:09:32;;;;;;;3.63;0.80;;;22.60;30.20;;;;;;5049165;28;20195;-68
2023/02/04 00:12:00;;;;;;;4.97;0.80;;;22.80;30.20;;;;;;5050804;28;20267;-70
2023/02/04 00:14:27;;;;;;;2.67;0.80;;;22.80;30.20;;;;;;5048483;28;20180;-70
2023/02/04 00:16:54;;;;;;;2.90;0.80;;;23.00;30.60;;;;;;5051167;28;20223;-68
2023/02/04 00:19:22;;;;;;;2.70;0.60;;;23.00;30.10;;;;;;5046712;28;20175;-67
2023/02/04 00:21:49;;;;;;;4.10;0.77;;;23.10;30.70;;;;;;5045240;28;20180;-70
2023/02/04 00:24:17;;;;;;;1.40;0.70;;;23.10;30.20;;;;;;5049253;28;20176;-69
2023/02/04 00:26:44;;;;;;;2.03;0.90;;;23.20;30.80;;;;;;5049368;28;20268;-67
2023/02/04 00:29:11;;;;;;;3.70;0.83;;;23.30;30.30;;;;;;5049618;28;20187;-68
2023/02/04 00:31:39;;;;;;;2.17;0.60;;;23.50;29.70;;;;;;5049236;28;20195;-69
2023/02/04 00:34:06;;;;;;;3.70;0.83;;;23.70;30.20;;;;;;5048111;28;20180;-69
2023/02/04 00:36:33;;;;;;;0.70;0.53;;;23.50;29.10;;;;;;5048388;28;20285;-72
2023/02/04 00:39:01;;;;;;;1.27;0.70;;;23.40;29.40;;;;;;5050481;28;20191;-69
2023/02/04 00:41:29;;;;;;;1.90;0.70;;;23.40;29.60;;;;;;5049591;28;20176;-72
2023/02/04 00:43:57;;;;;;;1.50;0.50;;;23.50;29.40;;;;;;5047680;28;20194;-69
2023/02/04 00:46:24;;;;;;;0.87;0.60;;;23.20;29.40;;;;;;5049681;28;20180;-72
2023/02/04 00:48:52;;;;;;;1.60;0.70;;;23.30;30.20;;;;;;5049013;28;20184;-67
2023/02/04 00:51:19;;;;;;;2.47;0.87;;;23.70;29.50;;;;;;5047806;28;20184;-70
2023/02/04 00:53:47;;;;;;;2.80;0.60;;;24.00;29.70;;;;;;5048048;28;20226;-69
2023/02/04 00:56:14;;;;;;;3.20;0.80;;;24.00;28.50;;;;;;5048557;28;20204;-70
2023/02/04 00:58:41;;;;;;;3.50;0.70;;;23.60;28.70;;;;;;5048901;28;20233;-70
2023/02/04 01:01:09;;;;;;;1.13;0.70;;;23.60;28.80;;;;;;5047957;28;20227;-69
2023/02/04 01:03:36;;;;;;;1.00;0.70;;;23.60;28.70;;;;;;5047949;28;20188;-71
2023/02/04 01:06:04;;;;;;;1.77;0.70;;;24.00;29.20;;;;;;5045724;28;20176;-72
2023/02/04 01:08:31;;;;;;;0.77;0.53;;;24.40;29.40;;;;;;5048919;28;20180;-71
2023/02/04 01:10:58;;;;;;;1.37;0.77;;;24.40;28.60;;;;;;5049457;28;20254;-70
2023/02/04 01:13:26;;;;;;;2.10;0.70;;;24.50;28.40;;;;;;5046287;28;20502;-70
2023/02/04 01:15:53;;;;;;;0.90;0.73;;;24.40;27.80;;;;;;5046330;28;20212;-71
2023/02/04 01:18:21;;;;;;;1.00;0.50;;;24.50;28.00;;;;;;5046694;28;20256;-72
2023/02/04 01:20:48;;;;;;;3.27;0.90;;;24.40;28.00;;;;;;5047070;28;20184;-72
2023/02/04 01:23:15;;;;;;;3.83;0.70;;;24.80;28.60;;;;;;5047417;28;20638;-70
2023/02/04 01:25:43;;;;;;;0.60;0.40;;;24.80;28.20;;;;;;5049648;28;20188;-73
2023/02/04 01:28:10;;;;;;;0.70;0.40;;;24.80;28.50;;;;;;5049824;28;20183;-73
2023/02/04 01:30:38;;;;;;;3.40;0.67;;;24.80;27.20;;;;;;5049617;28;20188;-71
2023/02/04 01:33:05;;;;;;;3.70;0.90;;;24.80;27.60;;;;;;5049978;28;20188;-72
2023/02/04 01:35:33;;;;;;;2.80;0.63;;;25.10;27.40;;;;;;5048952;28;20261;-70
2023/02/04 01:38:00;;;;;;;1.13;0.63;;;25.10;26.90;;;;;;5049843;28;20214;-74
2023/02/04 01:40:28;;;;;;;1.23;0.67;;;25.40;27.20;;;;;;5049616;28;20286;-69
2023/02/04 01:42:55;;;;;;;0.77;0.60;;;25.60;27.00;;;;;;5049492;28;20207;-75
2023/02/04 01:45:23;;;;;;;1.27;0.67;;;25.30;26.70;;;;;;5049438;28;20184;-72
2023/02/04 01:47:50;;;;;;;0.93;0.40;;;25.30;26.80;;;;;;5048402;28;20586;-72
2023/02/04 01:50:18;;;;;;;1.93;0.50;;;25.50;27.50;;;;;;5049620;28;20180;-71
2023/02/04 01:52:46;;;;;;;0.50;0.50;;;25.90;26.10;;;;;;5049561;28;20299;-69
2023/02/04 01:55:17;;;;;;;1.30;0.67;;;25.70;26.60;;;;;;5049919;28;20220;-68
2023/02/04 01:57:45;;;;;;;2.80;0.73;;;25.60;26.50;;;;;;5050522;28;20184;-68
2023/02/04 02:00:17;;;;;;;1.53;0.60;;;25.50;26.60;;;;;;5053692;28;20723;-70
2023/02/04 02:02:47;;;;;;;1.23;0.60;;;25.80;25.90;;;;;;5053662;28;20172;-67
2023/02/04 02:05:50;;;;;;;1.60;0.40;;;25.90;26.30;;;;;;5053512;28;20180;-69
2023/02/04 02:08:17;;;;;;;0.93;0.50;;;26.00;25.50;;;;;;5053620;28;20188;-68
2023/02/04 02:10:48;;;;;;;0.83;0.50;;;26.00;25.70;;;;;;5052876;28;20192;-70
2023/02/04 02:13:22;;;;;;;1.13;0.50;;;26.40;24.60;;;;;;5053222;28;20182;-69
2023/02/04 02:15:49;;;;;;;2.83;0.90;;;26.30;24.60;;;;;;5053063;28;20298;-69
2023/02/04 02:18:17;;;;;;;1.20;0.50;;;26.30;24.60;;;;;;5053228;28;20175;-71
2023/02/04 02:20:45;;;;;;;1.27;0.60;;;26.40;24.60;;;;;;5049739;28;20526;-72
2023/02/04 02:23:15;;;;;;;1.27;0.63;;;26.50;24.00;;;;;;5053076;28;20636;-71
2023/02/04 02:25:43;;;;;;;2.93;0.63;;;26.70;24.40;;;;;;5052614;28;20203;-70
2023/02/04 02:28:15;;;;;;;1.17;0.50;;;26.90;24.40;;;;;;5053256;28;20188;-68
2023/02/04 02:30:47;;;;;;;3.17;0.80;;;26.60;24.30;;;;;;5049600;28;20176;-72
2023/02/04 02:33:21;;;;;;;2.10;0.60;;;26.60;24.30;;;;;;5053345;28;20209;-70
2023/02/04 02:35:49;;;;;;;1.70;0.50;;;26.60;24.10;;;;;;5049777;28;20208;-67
2023/02/04 02:38:18;;;;;;;1.80;0.53;;;26.80;24.00;;;;;;5052769;28;20654;-69
2023/02/04 02:40:49;;;;;;;3.47;0.80;;;27.10;24.60;;;;;;5049512;28;20559;-68
2023/02/04 02:43:23;;;;;;;1.03;0.60;;;27.30;23.80;;;;;;5047848;28;20234;-68
2023/02/04 02:45:59;;;;;;;1.23;0.60;;;27.00;23.50;;;;;;5052141;28;20191;-67
2023/02/04 02:48:26;;;;;;;0.77;0.50;;;27.00;24.30;;;;;;5052841;28;20174;-67
2023/02/04 02:50:54;;;;;;;2.23;0.70;;;27.00;24.00;;;;;;5052392;28;20582;-69
2023/02/04 02:53:21;;;;;;;1.50;0.57;;;27.30;23.20;;;;;;5052486;28;20176;-66
2023/02/04 02:55:49;;;;;;;0.60;0.50;;;27.40;23.10;;;;;;5052783;28;20219;-71
2023/02/04 02:58:35;;;;;;;1.27;0.50;;;27.50;23.50;;;;;;5052924;28;20214;-68
2023/02/04 03:01:05;;;;;;;0.80;0.50;;;27.70;23.30;;;;;;5051636;28;20270;-70
2023/02/04 03:03:52;;;;;;;4.33;0.50;;;27.60;22.60;;;;;;5052595;28;20267;-70
2023/02/04 03:06:23;;;;;;;2.30;0.60;;;27.30;22.90;;;;;;5052286;28;20175;-71
2023/02/04 03:08:54;;;;;;;0.67;0.50;;;27.50;23.40;;;;;;5051235;28;20243;-70
2023/02/04 03:11:22;;;;;;;0.87;0.70;;;27.50;23.30;;;;;;5051089;28;20650;-70
2023/02/04 03:13:51;;;;;;;3.27;0.70;;;28.30;23.30;;;;;;5052387;28;20191;-70
2023/02/04 03:16:19;;;;;;;5.90;0.40;;;28.50;22.20;;;;;;5052057;28;20216;-69
2023/02/04 03:18:48;;;;;;;0.63;0.40;;;28.60;22.80;;;;;;5051586;28;20179;-70
2023/02/04 03:21:15;;;;;;;1.47;0.60;;;28.70;22.20;;;;;;5050142;28;20617;-72
2023/02/04 03:23:43;;;;;;;4.20;0.60;;;28.60;22.30;;;;;;5052212;28;20176;-70
2023/02/04 03:26:10;;;;;;;2.80;0.83;;;28.80;22.00;;;;;;5051184;28;20533;-71
2023/02/04 03:28:42;;;;;;;1.00;0.40;;;28.60;21.70;;;;;;5045905;28;20176;-69
2023/02/04 03:31:09;;;;;;;0.50;0.50;;;28.80;21.70;;;;;;5050698;28;20211;-70
2023/02/04 03:33:37;;;;;;;1.77;0.47;;;28.80;20.60;;;;;;5051494;28;20184;-68
2023/02/04 03:36:04;;;;;;;1.20;0.40;;;28.90;20.80;;;;;;5050671;28;20192;-74
2023/02/04 03:38:33;;;;;;;1.00;0.60;;;29.10;19.80;;;;;;5050078;28;20634;-70
2023/02/04 03:41:01;;;;;;;1.80;0.47;;;29.10;20.50;;;;;;5050192;28;20184;-71
2023/02/04 03:43:28;;;;;;;2.10;0.50;;;28.90;20.90;;;;;;5051371;28;20191;-75
2023/02/04 03:45:56;;;;;;;0.70;0.60;;;29.10;20.70;;;;;;5051472;28;20267;-71
2023/02/04 03:48:23;;;;;;;1.10;0.47;;;29.40;20.50;;;;;;5051486;28;20237;-71
2023/02/04 03:50:50;;;;;;;1.02;0.55;;;29.70;19.20;;;;;;5050938;28;20245;-70
2023/02/04 03:53:18;;;;;;;0.60;0.50;;;29.70;19.40;;;;;;5051426;28;20204;-67
2023/02/04 03:55:45;;;;;;;1.77;0.45;;;29.80;19.40;;;;;;5051321;28;20305;-68
2023/02/04 03:58:13;;;;;;;0.60;0.43;;;29.40;19.80;;;;;;5080997;28;20230;-71
2023/02/04 04:00:40;;;;;;;1.27;0.53;;;29.40;19.40;;;;;;5051054;28;20222;-72
2023/02/04 04:03:08;;;;;;;2.20;0.60;;;29.30;19.90;;;;;;5051685;28;20168;-69
2023/02/04 04:05:35;;;;;;;1.27;0.60;;;29.60;19.90;;;;;;5050404;28;20183;-72
2023/02/04 04:08:02;;;;;;;0.53;0.40;;;29.60;19.60;;;;;;5050973;28;20179;-70
2023/02/04 04:10:30;;;;;;;0.35;0.30;;;29.40;19.20;;;;;;5050461;28;20179;-70
2023/02/04 04:12:57;;;;;;;1.13;0.50;;;29.70;19.70;;;;;;5050485;28;20176;-70
2023/02/04 04:15:25;;;;;;;1.27;0.40;;;30.50;20.20;;;;;;5048400;28;20632;-72
2023/02/04 04:17:52;;;;;;;1.17;0.43;;;30.70;18.90;;;;;;5050099;28;20188;-71
2023/02/04 04:20:24;;;;;;;3.38;0.50;;;30.80;18.90;;;;;;5050390;28;20176;-71
2023/02/04 04:22:52;;;;;;;2.53;0.50;;;30.30;18.20;;;;;;5049566;28;20191;-71
2023/02/04 04:25:19;;;;;;;1.27;0.47;;;30.20;19.10;;;;;;5049229;28;20199;-71
2023/02/04 04:27:47;;;;;;;1.48;0.50;;;30.30;18.50;;;;;;5048503;28;20588;-77
2023/02/04 04:30:14;;;;;;;0.77;0.50;;;30.20;18.80;;;;;;5049771;28;20199;-74
2023/02/04 04:32:42;;;;;;;0.77;0.40;;;29.60;19.20;;;;;;5049353;28;20233;-74
2023/02/04 04:35:09;;;;;;;1.52;0.38;;;30.30;18.70;;;;;;5048630;28;20180;-72
2023/02/04 04:37:36;;;;;;;1.33;0.40;;;31.30;18.30;;;;;;5049129;28;20270;-75
2023/02/04 04:40:04;;;;;;;0.57;0.50;;;31.60;17.70;;;;;;5048885;28;20711;-72
2023/02/04 04:42:32;;;;;;;0.80;0.63;;;30.80;17.10;;;;;;5049579;28;20207;-74
2023/02/04 04:44:59;;;;;;;1.80;0.40;;;30.70;17.30;;;;;;5049268;28;20605;-73
2023/02/04 04:47:26;;;;;;;1.10;0.50;;;30.60;17.80;;;;;;5049147;28;20378;-72
2023/02/04 04:49:54;;;;;;;1.35;0.43;;;31.00;17.80;;;;;;5050094;28;20540;-72
2023/02/04 04:52:21;;;;;;;1.75;0.40;;;30.70;17.60;;;;;;5050626;28;20231;-70
2023/02/04 04:54:49;;;;;;;3.03;0.30;;;31.30;18.00;;;;;;5045042;28;20272;-76
2023/02/04 04:57:16;;;;;;;1.13;0.32;;;32.00;17.30;;;;;;5050076;28;20207;-71
2023/02/04 04:59:43;;;;;;;1.60;0.38;;;31.30;17.20;;;;;;5050089;28;20263;-73
2023/02/04 05:02:11;;;;;;;2.42;0.40;;;30.80;17.90;;;;;;5049879;28;20176;-74
2023/02/04 05:04:38;;;;;;;1.17;0.43;;;31.00;17.90;;;;;;5049496;28;20596;-71
2023/02/04 05:07:05;;;;;;;1.17;0.22;;;31.80;17.90;;;;;;5048728;28;20651;-71
2023/02/04 05:09:33;;;;;;;3.72;0.43;;;32.30;16.60;;;;;;5048587;28;21025;-74
2023/02/04 05:12:01;;;;;;;0.35;0.20;;;32.50;16.70;;;;;;5047844;28;20263;-68
2023/02/04 05:14:28;;;;;;;1.40;0.55;;;31.80;17.40;;;;;;5052412;28;20172;-68
2023/02/04 05:16:56;;;;;;;0.60;0.30;;;32.10;17.10;;;;;;5054867;28;20549;-68
2023/02/04 05:19:23;;;;;;;0.40;0.40;;;32.30;17.40;;;;;;5048825;28;20207;-68
2023/02/04 05:21:51;;;;;;;2.40;0.45;;;32.40;17.10;;;;;;5053338;28;20184;-71
2023/02/04 05:24:18;;;;;;;0.82;0.40;;;32.00;18.10;;;;;;5051319;28;20184;-71
2023/02/04 05:26:46;;;;;;;0.88;0.40;;;31.80;17.60;;;;;;5052196;28;20173;-71
2023/02/04 05:29:13;;;;;;;0.65;0.38;;;31.90;17.80;;;;;;5046765;28;20199;-72
2023/02/04 05:31:40;;;;;;;2.00;0.40;;;32.20;17.40;;;;;;5049021;28;20184;-71
2023/02/04 05:34:08;;;;;;;0.40;0.30;;;32.30;17.20;;;;;;5052221;28;20202;-70
2023/02/04 05:36:35;;;;;;;1.50;0.40;;;32.50;17.20;;;;;;5053065;28;20223;-72
2023/02/04 05:39:04;;;;;;;1.75;0.38;;;32.20;17.50;;;;;;5055765;28;20176;-71
2023/02/04 05:41:31;;;;;;;1.75;0.40;;;32.50;17.30;;;;;;5053244;28;20734;-71
2023/02/04 05:43:59;;;;;;;0.60;0.57;;;32.60;17.10;;;;;;5052998;28;20202;-73
2023/02/04 05:46:27;;;;;;;0.73;0.40;;;32.60;17.70;;;;;;5055531;28;20257;-73
2023/02/04 05:48:55;;;;;;;1.05;0.30;;;33.00;17.00;;;;;;5056907;28;20181;-71
2023/02/04 05:51:22;;;;;;;1.83;0.50;;;32.30;17.10;;;;;;5053252;28;20187;-70
2023/02/04 05:53:49;;;;;;;1.23;0.40;;;32.50;17.30;;;;;;5056204;28;20228;-73
2023/02/04 05:56:17;;;;;;;0.90;0.30;;;32.70;17.40;;;;;;5055809;28;20261;-70
2023/02/04 05:58:44;;;;;;;0.63;0.40;;;32.70;17.70;;;;;;5058236;28;20262;-72
2023/02/04 06:01:12;;;;;;;0.20;0.20;;;32.40;18.00;;;;;;5058181;28;20195;-69
2023/02/04 06:03:39;;;;;;;2.38;0.40;;;32.30;17.90;;;;;;5058699;28;20175;-72
2023/02/04 06:06:07;;;;;;;0.57;0.40;;;32.50;18.00;;;;;;5056309;28;20168;-71
2023/02/04 06:08:35;;;;;;;1.50;0.47;;;32.40;18.00;;;;;;5054502;28;20184;-73
2023/02/04 06:11:02;;;;;;;0.60;0.40;;;32.70;17.60;;;;;;5053239;28;20669;-69
2023/02/04 06:13:29;;;;;;;0.85;0.40;;;32.80;17.80;;;;;;5053302;28;20196;-70
2023/02/04 06:15:57;;;;;;;3.42;0.50;;;32.60;17.80;;;;;;5055254;28;20222;-69
2023/02/04 06:18:24;;;;;;;1.60;0.50;;;32.80;17.90;;;;;;5056383;28;20179;-70
2023/02/04 06:20:52;;;;;;;2.60;0.40;;;33.00;18.10;;;;;;5056793;28;20207;-71
2023/02/04 06:23:19;;;;;;;1.30;0.40;;;33.40;17.20;;;;;;5051908;28;20191;-71
2023/02/04 06:25:48;;;;;;;1.25;0.40;;;32.60;17.60;;;;;;5053143;28;20246;-70
2023/02/04 06:28:16;;;;;;;0.63;0.30;;;32.00;18.10;;;;;;5052112;28;20183;-71
2023/02/04 06:30:43;;;;;;;0.80;0.40;;;32.30;17.90;;;;;;5049442;28;20673;-71
2023/02/04 06:33:11;;;;;;;2.83;0.50;;;32.80;18.20;;;;;;5052522;28;20667;-73
2023/02/04 06:35:38;;;;;;;1.10;0.40;;;32.40;18.20;;;;;;5053392;28;20207;-73
2023/02/04 06:38:05;;;;;;;1.10;0.30;;;32.70;17.60;;;;;;5050221;28;21199;-69
2023/02/04 06:40:33;;;;;;;3.38;0.45;;;31.90;18.10;;;;;;5055094;28;20233;-73
2023/02/04 06:43:00;;;;;;;1.83;0.40;;;31.80;18.30;;;;;;5056237;28;20270;-73
2023/02/04 06:45:28;;;;;;;1.08;0.43;;;32.10;18.40;;;;;;5055430;28;20184;-72
2023/02/04 06:47:55;;;;;;;0.63;0.43;;;31.80;18.90;;;;;;5056524;28;20706;-71
2023/02/04 06:50:22;;;;;;;0.95;0.47;;;32.20;18.90;;;;;;5055513;28;20262;-73
2023/02/04 06:52:50;;;;;;;1.40;0.52;;;32.70;18.40;;;;;;5054921;28;20263;-69
2023/02/04 06:55:18;;;;;;;0.65;0.50;;;32.80;18.40;;;;;;5058028;28;20231;-68
2023/02/04 06:57:45;;;;;;;2.05;0.40;;;31.80;18.90;;;;;;5047843;28;20190;-68
2023/02/04 07:00:13;;;;;;;1.02;0.52;;;31.50;19.50;;;;;;5051347;28;20642;-70
2023/02/04 07:02:41;;;;;;;0.85;0.60;;;32.70;18.80;;;;;;5051923;28;20180;-70
2023/02/04 07:05:09;;;;;;;0.98;0.70;;;32.40;19.00;;;;;;5051435;28;20232;-70
2023/02/04 07:07:37;;;;;;;0.68;0.40;;;32.30;19.00;;;;;;5052818;28;20270;-68
2023/02/04 07:10:04;;;;;;;1.40;0.57;;;32.30;19.00;;;;;;5083899;28;20184;-73
2023/02/04 07:12:32;;;;;;;3.50;0.50;;;31.70;19.20;;;;;;5050616;28;20931;-70
2023/02/04 07:14:59;;;;;;;3.90;0.80;;;31.60;19.50;;;;;;5052389;28;20180;-74
2023/02/04 07:17:26;;;;;;;0.65;0.60;;;32.30;19.40;;;;;;5051809;28;20208;-70
2023/02/04 07:19:54;;;;;;;1.83;0.88;;;32.40;19.50;;;;;;5052505;28;20179;-73
2023/02/04 07:22:22;;;;;;;1.52;0.90;;;32.60;19.40;;;;;;5052391;28;20176;-70
2023/02/04 07:24:49;;;;;;;4.47;1.00;;;32.80;19.00;;;;;;5052435;28;20532;-71
2023/02/04 07:27:17;;;;;;;0.73;0.40;;;31.80;19.90;;;;;;5052351;28;20538;-68
2023/02/04 07:29:44;;;;;;;1.10;0.40;;;31.30;19.90;;;;;;5050229;28;20226;-67
2023/02/04 07:32:12;;;;;;;1.20;0.50;;;30.70;20.80;;;;;;5052060;28;20176;-68
2023/02/04 07:34:39;;;;;;;1.15;0.50;;;31.30;20.50;;;;;;5051412;28;20188;-67
2023/02/04 07:37:06;;;;;;;1.25;0.45;;;31.50;20.10;;;;;;5052334;28;20307;-70
2023/02/04 07:39:34;;;;;;;0.63;0.50;;;31.30;20.70;;;;;;5050541;28;20175;-67
2023/02/04 07:42:01;;;;;;;0.47;0.43;;;31.60;20.60;;;;;;5052684;28;20646;-68
2023/02/04 07:44:28;;;;;;;1.08;0.40;;;30.70;21.00;;;;;;5051368;28;20628;-67
2023/02/04 07:46:56;;;;;;;5.20;0.77;;;30.30;21.60;;;;;;5050598;28;20542;-72
2023/02/04 07:49:23;;;;;;;1.65;0.52;;;30.50;21.60;;;;;;5051108;28;20669;-72
2023/02/04 07:51:51;;;;;;;1.40;0.70;;;30.20;22.00;;;;;;5052240;28;20276;-69
2023/02/04 07:54:18;;;;;;;5.10;0.50;;;29.30;22.90;;;;;;5051179;28;20223;-74
2023/02/04 07:56:46;;;;;;;1.37;0.50;;;28.80;23.40;;;;;;5049404;28;20195;-69
2023/02/04 07:59:13;;;;;;;0.80;0.50;;;28.30;23.70;;;;;;5051684;28;20634;-73
2023/02/04 08:01:40;;;;;;;2.47;0.90;;;28.00;24.10;;;;;;5051710;28;20221;-71
2023/02/04 08:04:08;;;;;;;1.60;0.40;;;27.80;24.60;;;;;;5056655;28;20792;-72
2023/02/04 08:06:35;;;;;;;1.00;0.90;;;27.80;24.50;;;;;;5051352;28;20196;-72
2023/02/04 08:09:03;;;;;;;2.80;1.50;;;27.70;24.80;;;;;;5051833;28;20180;-72
2023/02/04 08:11:30;;;;;;;2.40;0.80;;;27.40;25.20;;;;;;5049830;28;20605;-71
2023/02/04 08:13:58;;;;;;;1.53;0.77;;;27.40;25.30;;;;;;5049221;28;20180;-69
2023/02/04 08:16:25;;;;;;;1.40;1.30;;;27.20;25.30;;;;;;5051361;28;20219;-71
2023/02/04 08:18:53;;;;;;;5.63;0.70;;;27.10;25.70;;;;;;5051531;28;20183;-75
2023/02/04 08:21:20;;;;;;;1.57;0.60;;;26.90;25.70;;;;;;5050959;28;20249;-72
2023/02/04 08:23:48;;;;;;;1.20;0.70;;;26.80;26.10;;;;;;5051419;28;20187;-69
2023/02/04 08:26:15;;;;;;;1.50;0.63;;;26.70;26.20;;;;;;5051299;28;20186;-71
2023/02/04 08:28:42;;;;;;;1.77;0.60;;;26.70;26.30;;;;;;5051579;28;20205;-69
2023/02/04 08:31:10;;;;;;;1.37;0.50;;;26.60;26.20;;;;;;5048926;28;20264;-66
2023/02/04 08:33:40;;;;;;;0.70;0.57;;;26.50;26.30;;;;;;5050507;28;20249;-69
2023/02/04 08:36:08;;;;;;;3.47;0.73;;;26.40;26.40;;;;;;5051291;28;20290;-72
2023/02/04 08:38:36;;;;;;;3.70;0.97;;;26.40;26.60;;;;;;5050952;28;20183;-72
2023/02/04 08:41:03;;;;;;;3.57;0.70;;;26.40;26.80;;;;;;5051487;28;20183;-73
2023/02/04 08:43:31;;;;;;;1.90;0.60;;;26.40;27.00;;;;;;5054032;28;20194;-71
2023/02/04 08:45:58;;;;;;;0.77;0.70;;;26.30;27.00;;;;;;5048578;28;20183;-71
2023/02/04 08:48:25;;;;;;;3.27;0.80;;;26.30;27.20;;;;;;5048298;28;20302;-68
2023/02/04 08:50:53;;;;;;;2.10;0.87;;;26.30;27.40;;;;;;5049625;28;20180;-72
2023/02/04 08:53:20;;;;;;;4.87;0.80;;;26.20;27.80;;;;;;5045698;28;20198;-69
2023/02/04 08:55:48;;;;;;;4.97;1.20;;;26.20;27.70;;;;;;5045698;28;20260;-68
2023/02/04 08:58:15;;;;;;;3.50;0.80;;;26.00;28.00;;;;;;5048555;28;20237;-68
2023/02/04 09:00:43;;;;;;;5.70;1.10;;;26.00;27.70;;;;;;5049105;28;20268;-69
2023/02/04 09:03:10;;;;;;;3.00;0.80;;;25.90;27.90;;;;;;5050021;28;20191;-70
2023/02/04 09:05:37;;;;;;;3.33;0.93;;;25.80;27.80;;;;;;5049612;28;20270;-71
2023/02/04 09:08:05;;;;;;;3.43;0.80;;;25.80;27.90;;;;;;5051777;28;20235;-71
2023/02/04 09:10:32;;;;;;;2.13;0.80;;;25.70;28.20;;;;;;5051059;28;20573;-71
2023/02/04 09:13:00;;;;;;;2.50;0.60;;;25.70;27.80;;;;;;5049636;28;20191;-73
2023/02/04 09:15:27;;;;;;;1.83;0.80;;;25.60;27.90;;;;;;5051234;28;20168;-73
2023/02/04 09:18:03;;;;;;;2.30;1.00;;;25.60;28.10;;;;;;5054439;28;20187;-73
2023/02/04 09:20:30;;;;;;;2.50;1.30;;;25.50;28.30;;;;;;5052754;28;20190;-72
2023/02/04 09:22:58;;;;;;;2.13;0.87;;;25.40;28.30;;;;;;5054323;28;20577;-71
2023/02/04 09:25:25;;;;;;;2.17;0.90;;;25.30;28.50;;;;;;5053046;28;20168;-70
2023/02/04 09:27:53;;;;;;;3.03;0.87;;;25.30;28.60;;;;;;5052084;28;20176;-72
2023/02/04 09:30:20;;;;;;;1.73;0.90;;;25.30;28.70;;;;;;5048026;28;20653;-71
2023/02/04 09:32:47;;;;;;;1.60;0.90;;;25.20;29.10;;;;;;5052758;28;20620;-74
2023/02/04 09:35:15;;;;;;;2.33;0.90;;;25.20;29.00;;;;;;5049293;28;20241;-72
2023/02/04 09:37:42;;;;;;;1.80;0.83;;;25.10;29.10;;;;;;5044935;28;20241;-73
2023/02/04 09:40:20;;;;;;;4.00;1.00;;;25.10;29.10;;;;;;5052596;28;20194;-72
2023/02/04 09:42:50;;;;;;;2.53;1.07;;;25.00;29.10;;;;;;5053415;28;20186;-73
2023/02/04 09:45:26;;;;;;;3.03;1.07;;;25.00;29.30;;;;;;5051553;28;20623;-71
2023/02/04 09:47:59;;;;;;;2.00;0.90;;;24.90;29.40;;;;;;5048349;28;20221;-71
2023/02/04 09:50:28;;;;;;;1.10;0.80;;;24.90;29.60;;;;;;5048615;28;20237;-74
2023/02/04 09:52:58;;;;;;;2.67;0.80;;;24.80;29.70;;;;;;5052357;28;20206;-71
2023/02/04 09:55:31;;;;;;;2.57;0.90;;;24.80;29.90;;;;;;5050965;28;20227;-70
2023/02/04 09:57:59;;;;;;;4.73;0.80;;;24.80;29.80;;;;;;5050824;28;20579;-70
2023/02/04 10:00:29;;;;;;;1.00;0.70;;;24.70;29.80;;;;;;5051070;28;20646;-67
2023/02/04 10:03:02;;;;;;;1.43;0.90;;;24.70;29.90;;;;;;5049852;28;20215;-70
2023/02/04 10:05:36;;;;;;;2.97;1.20;;;24.70;30.00;;;;;;5051000;28;20188;-67
2023/02/04 10:08:05;;;;;;;2.40;0.80;;;24.70;30.00;;;;;;5054277;28;20719;-68
2023/02/04 10:10:32;;;;;;;2.67;0.83;;;24.60;30.10;;;;;;5052361;28;20302;-67
2023/02/04 10:13:02;;;;;;;4.07;0.90;;;24.60;30.30;;;;;;5053432;28;20551;-68
2023/02/04 10:15:30;;;;;;;3.37;1.33;;;24.60;30.60;;;;;;5051887;28;20285;-71
2023/02/04 10:18:06;;;;;;;1.67;0.70;;;24.50;30.60;;;;;;5052574;28;20314;-71
2023/02/04 10:20:34;;;;;;;4.77;1.20;;;24.40;30.70;;;;;;5051100;28;20298;-72
2023/02/04 10:23:02;;;;;;;3.20;1.10;;;24.40;31.10;;;;;;5053560;28;20172;-72
2023/02/04 10:25:29;;;;;;;1.70;0.90;;;24.30;31.20;;;;;;5057461;28;20638;-72
2023/02/04 10:27:59;;;;;;;2.57;1.23;;;24.30;31.20;;;;;;5055517;28;20188;-71
2023/02/04 10:30:34;;;;;;;2.93;1.10;;;24.30;31.20;;;;;;5050161;28;20188;-72
2023/02/04 10:33:21;;;;;;;3.40;0.80;;;24.20;31.40;;;;;;5053298;28;20198;-70
2023/02/04 10:35:51;;;;;;;3.73;1.20;;;24.10;31.40;;;;;;5052680;28;20203;-70
2023/02/04 10:38:19;;;;;;;3.47;0.90;;;24.10;31.50;;;;;;5053685;28;20191;-72
2023/02/04 10:40:47;;;;;;;1.53;0.97;;;24.00;31.40;;;;;;5046494;28;20215;-67
2023/02/04 10:43:22;;;;;;;3.47;1.20;;;24.10;31.50;;;;;;5053567;28;20211;-68
2023/02/04 10:45:58;;;;;;;1.93;0.93;;;24.10;31.60;;;;;;5052404;28;20187;-72
2023/02/04 10:48:26;;;;;;;1.43;1.00;;;24.00;31.90;;;;;;5052929;28;20231;-69
2023/02/04 10:50:55;;;;;;;3.40;1.17;;;23.90;31.70;;;;;;5050419;28;20184;-72
2023/02/04 10:56:27;;;;;;;4.77;1.00;;;23.90;32.30;;;;;;5055361;28;20218;-71
2023/02/04 10:58:54;;;;;;;1.83;0.97;;;23.80;32.40;;;;;;5055151;28;20188;-72
2023/02/04 11:01:22;;;;;;;5.10;1.07;;;23.80;32.40;;;;;;5057063;28;20533;-70
2023/02/04 11:03:49;;;;;;;2.43;1.03;;;23.70;32.70;;;;;;5052118;28;20353;-72
2023/02/04 11:06:24;;;;;;;2.37;1.17;;;23.70;33.20;;;;;;5059494;28;20189;-71
2023/02/04 11:08:54;;;;;;;2.50;1.43;;;23.50;33.70;;;;;;5053800;28;20337;-72
2023/02/04 11:11:25;;;;;;;2.60;1.10;;;23.50;34.10;;;;;;5056910;28;20657;-70
2023/02/04 11:13:53;;;;;;;3.37;1.03;;;23.30;34.20;;;;;;5052368;28;20184;-71
2023/02/04 11:16:24;;;;;;;2.57;1.20;;;23.30;34.30;;;;;;5059555;28;20218;-71
2023/02/04 11:18:54;;;;;;;1.33;1.00;;;23.20;34.90;;;;;;5052173;28;20180;-72
2023/02/04 11:21:33;;;;;;;2.97;1.10;;;23.10;35.20;;;;;;5051253;28;20180;-72
2023/02/04 11:24:15;;;;;;;4.37;1.10;;;23.10;35.80;;;;;;5049559;28;20194;-72
2023/02/04 11:26:51;;;;;;;3.00;1.07;;;23.00;35.30;;;;;;5052938;28;20534;-71
2023/02/04 11:29:26;;;;;;;3.17;1.13;;;23.00;34.80;;;;;;5052338;28;20244;-72
2023/02/04 11:32:00;;;;;;;2.03;1.00;;;23.00;34.60;;;;;;5046749;28;20180;-72
2023/02/04 11:34:29;;;;;;;4.87;1.17;;;23.00;35.20;;;;;;5052085;28;20284;-70
2023/02/04 11:37:11;;;;;;;1.73;0.80;;;23.00;35.40;;;;;;5050896;28;20627;-70
2023/02/04 11:39:44;;;;;;;3.87;1.13;;;22.90;35.40;;;;;;5052641;28;20542;-73
2023/02/04 11:42:23;;;;;;;3.57;1.00;;;22.90;35.60;;;;;;5053091;28;20192;-72
2023/02/04 11:45:01;;;;;;;2.97;1.00;;;22.90;35.30;;;;;;5051429;28;20643;-72
2023/02/04 11:47:36;;;;;;;1.73;1.03;;;22.90;35.70;;;;;;5059008;28;20187;-73
2023/02/04 11:50:37;;;;;;;2.03;0.93;;;22.80;36.00;;;;;;5051899;28;20179;-71
2023/02/04 11:53:14;;;;;;;3.13;1.00;;;22.80;35.70;;;;;;5087707;27;20655;-70
2023/02/04 11:55:46;;;;;;;2.90;1.30;;;22.80;35.80;;;;;;5083011;28;20178;-72
2023/02/04 11:58:19;;;;;;;3.03;1.03;;;22.80;36.30;;;;;;5087727;28;20244;-69
2023/02/04 12:00:47;;;;;;;2.17;1.07;;;22.70;36.60;;;;;;5087825;28;20532;-72
2023/02/04 12:03:47;;;;;;;4.17;1.17;;;22.70;36.90;;;;;;5087467;28;20190;-71
2023/02/04 12:06:28;;;;;;;3.57;1.40;;;22.70;36.90;;;;;;5079974;28;20217;-72
2023/02/04 12:09:17;;;;;;;1.70;1.00;;;22.60;37.10;;;;;;5087915;28;20232;-73
2023/02/04 12:12:02;;;;;;;2.63;1.30;;;22.50;37.90;;;;;;5086432;28;20562;-69
2023/02/04 12:14:37;;;;;;;3.87;1.50;;;22.30;37.70;;;;;;5088291;28;20224;-71
2023/02/04 12:17:19;;;;;;;3.07;1.10;;;22.30;38.20;;;;;;5088045;27;20273;-72
2023/02/04 12:19:47;;;;;;;2.93;1.20;;;22.30;37.80;;;;;;5086849;28;20175;-69
2023/02/04 12:22:14;;;;;;;1.43;1.07;;;22.20;38.00;;;;;;5087573;28;20185;-71
2023/02/04 12:24:43;;;;;;;3.53;1.20;;;22.20;38.80;;;;;;5087111;28;20209;-70
2023/02/04 12:27:10;;;;;;;4.63;1.50;;;22.10;38.60;;;;;;5086960;28;20721;-72
2023/02/04 12:29:37;;;;;;;1.73;1.00;;;22.10;38.90;;;;;;5087781;28;20591;-71
2023/02/04 12:32:05;;;;;;;2.37;0.90;;;22.00;38.70;;;;;;5086201;28;20591;-66
2023/02/04 12:34:32;;;;;;;6.20;1.30;;;22.20;38.70;;;;;;5087536;28;20183;-66
2023/02/04 12:37:00;;;;;;;2.83;1.40;;;22.10;38.20;;;;;;5087574;28;20633;-73
2023/02/04 12:39:27;;;;;;;2.50;1.00;;;22.20;38.30;;;;;;5085941;28;20191;-71
2023/02/04 12:41:55;;;;;;;2.17;1.23;;;22.20;39.00;;;;;;5087356;28;20179;-71
2023/02/04 12:44:22;;;;;;;1.70;1.00;;;22.20;39.40;;;;;;5086809;28;20214;-73
2023/02/04 12:46:50;;;;;;;3.03;1.20;;;22.00;39.70;;;;;;5087363;28;20179;-71
2023/02/04 12:49:17;;;;;;;2.23;1.40;;;22.00;40.10;;;;;;5086900;28;20544;-71
2023/02/04 12:51:45;;;;;;;3.23;1.03;;;21.90;40.00;;;;;;5084992;28;20806;-71
2023/02/04 12:54:12;;;;;;;4.63;1.47;;;22.00;39.40;;;;;;5086810;28;20171;-69
2023/02/04 12:56:39;;;;;;;4.50;1.40;;;22.00;39.10;;;;;;5086137;28;20184;-72
2023/02/04 12:59:07;;;;;;;2.40;1.00;;;22.00;39.40;;;;;;5093368;28;20343;-73
2023/02/04 13:01:34;;;;;;;2.90;1.10;;;21.90;39.60;;;;;;5085676;28;20221;-72